Terminal Aerodrome Forecast
Issued by NWS Aberdeen, SD

Home | Current Version | Previous Version | Text Only | Print | Product List | Glossary On
Versions: 1 2 3 4 5 6 7 8 9 10 11 12 13 14 15 16 17 18 19 20 21 22 23 24 25 26 27 28 29 30 31 32 33 34 35
000
FTAK31 PAFA 221740
TAFABR
TAF
PABR 221740Z 2218/2318 06012KT 3/4SM BR VCSH OVC004
     FM222000 05012KT P6SM VCSH OVC007
     FM230000 05011KT P6SM -RA OVC007
     FM230900 03009KT 5SM BR OVC004
     FM231400 03011KT 3SM BR OVC003=

USA.gov is the U.S. government's official web portal to all federal, state and local government web resources and services.